Lynchburg Regional Preston Glenn Field
KLYH : now visible

Airfield :











YOU CAN JOIN US ON...

 
LOGIN :

Register | Disclaimer

   EN    FR    IT 

 









Legend :    VFR   Marginal VFR   IFR   Intensive IFR   Very Intensive IFR
Visi :
Ceiling :
>= 8 km
>= 3000ft
5 to 8 km
1000 to 3000 ft
1500m to 5 km
500 to 1000 ft
800 to 1500m
200 to 500 ft
< 800m
< 200 ft
Symbols :   Thunderstorms  Fog  Heavy snow  Heavy precipitations  Wind > 20 kt






- Airport Elevation : 938 ft
- IATA code : LYH


KLYH - Lynchburg Regional Preston Glenn Field

CURRENT METAR :
  • 091506Z 05009KT 10SM SCT027 BKN033 28/19 A2999 RMK AO2 T02780194

EXPIRED METARs :
  • 091454Z 03008KT 10SM BKN027 BKN033 28/20 A3000 RMK AO2 SLP146 T02780200 58003
  • 091414Z 02009KT 10SM BKN023 BKN029 28/21 A3000 RMK AO2 T02830206
  • 091354Z 06007KT 10SM FEW010 SCT021 27/21 A3000 RMK AO2 SLP148 T02720206
  • 091301Z 06006KT 10SM BKN010 26/21 A3001 RMK AO2 T02610211
  • 091254Z 05007KT 10SM BKN007 26/21 A3001 RMK AO2 SLP150 T02560211

TAF KLYH
Valid from the 09 at 15:00 until the 10 at 12:00 UTC


091440Z 0915/1012 06008KT P6SM SCT025
TEMPO 0915/0917 BKN025
FM091700 04008G16KT P6SM SCT030 BKN150
FM100600 01007KT P6SM SCT035 BKN140
KZDC FIR / North America



MET'MAP, your aeronautical weather chart ! - Copyright ORBIFLY December 2007 - Disclaimer

ORBIFLY MET'MAP TEAM :

Programming & Development : Alexandra Zaïnal
Concept & original design : Baudouin d'Aumeries
Assistance for programming : Marc-Olivier Méhu
Technical & hardware support : Manuel Goepfert

Contact : metmap@orbifly.com




SOURCES & CREDITS :

   NOAA       Earth
Advisory